Jelm, WY

5:07 AM MST on December 27, 2014 (GMT -0700)
Aspen Country | Change Station
CLOSE
Current Station
Personal Weather Station
Location: Centennial, WY
Elevation: 8050 ft
Nearby Weather Stations

Elev 8050 ft 41.29 °N, 106.15 °W | Updated 6 minutes ago

Partly Cloudy
Partly Cloudy
0.1 °F
Feels Like -9 °F
N
4.0
Wind Variable Wind from West
Gusts 6.0 mph

Today
High -- | Low -- °F
--% Chance of Precip.
Yesterday
High -- | Low -- °F
Precip. -- in
7:28 AM 4:42 PM
Waxing Crescent, 36% visible
Pressure 30.04 in
Visibility 0.5 miles
Clouds Mostly Cloudy 100 ft
Overcast 3400 ft
Windchill -9 °F
Dew Point -4 °F
Humidity 84%
Rainfall 0.00 in
Snow Depth Not available.
UV 0 out of 12
Pollen .10 out of 12
Air Quality Not available.
Flu Activity Not available.
METAR K33V 271155Z AUTO 00000KT 1/2SM BKN001 OVC034 M25/M28 A3004 RMK AO2

More Conditions Fewer Conditions

Pressure 30.04 in
Visibility 0.5 miles
Clouds Mostly Cloudy 100 ft
Overcast 3400 ft
Windchill -9 °F
Dew Point -4 °F
Humidity 84%
Rainfall 0.00 in
Snow Depth Not available.
UV 0 out of 12
Pollen .10 out of 12
Air Quality Not available.
Flu Activity Not available.
METAR K33V 271155Z AUTO 00000KT 1/2SM BKN001 OVC034 M25/M28 A3004 RMK AO2

More Conditions Fewer Conditions

10-Day Weather Forecast

Almanac

Astronomy

Dec. 27, 2014 Rise Set
Actual Time
Civil Twilight
Nautical Twilight
Astronomical Twilight
Moon
Length of Visible Light
Length of Day
Tomorrow will be .
, % of the Moon is Illuminated

Today's Extremes

State Highs State Lows

Community

WunderPhotos

Upload Photos

1,780,885 photos uploaded!

WunderBlogs® & News

Nearby

Air Quality

  Air Quality AQ Index Pollutant
Not available.

Snow Depth

Station Depth Elevation

Earthquake Activity

City Distance Mag. Time & Date
Minimum magnitude displayed is 2.5.

Coastal Water Temperatures

Place Temperature

Nearby Weather Stations